sensor_id;sensor_type;location;lat;lon;timestamp;P1;durP1;ratioP1;P2;durP2;ratioP2
7231;SDS011;3657;49.630;11.018;2023-02-11T00:00:41;67.63;;;53.63;;
7231;SDS011;3657;49.630;11.018;2023-02-11T00:03:08;75.00;;;56.97;;
7231;SDS011;3657;49.630;11.018;2023-02-11T00:05:34;71.93;;;54.87;;
7231;SDS011;3657;49.630;11.018;2023-02-11T00:08:01;71.17;;;57.10;;
7231;SDS011;3657;49.630;11.018;2023-02-11T00:10:28;83.20;;;61.80;;
7231;SDS011;3657;49.630;11.018;2023-02-11T00:12:55;73.87;;;55.67;;
7231;SDS011;3657;49.630;11.018;2023-02-11T00:15:23;74.30;;;56.37;;
7231;SDS011;3657;49.630;11.018;2023-02-11T00:17:49;68.20;;;53.83;;
7231;SDS011;3657;49.630;11.018;2023-02-11T00:20:16;72.30;;;56.07;;
7231;SDS011;3657;49.630;11.018;2023-02-11T00:22:43;77.80;;;59.57;;
7231;SDS011;3657;49.630;11.018;2023-02-11T00:25:10;88.30;;;62.63;;
7231;SDS011;3657;49.630;11.018;2023-02-11T00:27:36;69.63;;;54.70;;
7231;SDS011;3657;49.630;11.018;2023-02-11T00:30:03;73.07;;;57.97;;
7231;SDS011;3657;49.630;11.018;2023-02-11T00:32:32;72.63;;;55.07;;
7231;SDS011;3657;49.630;11.018;2023-02-11T00:34:58;74.33;;;57.53;;
7231;SDS011;3657;49.630;11.018;2023-02-11T00:37:25;74.63;;;55.20;;
7231;SDS011;3657;49.630;11.018;2023-02-11T00:39:52;80.77;;;58.87;;
7231;SDS011;3657;49.630;11.018;2023-02-11T00:42:19;70.50;;;56.07;;
7231;SDS011;3657;49.630;11.018;2023-02-11T00:44:45;75.70;;;55.37;;
7231;SDS011;3657;49.630;11.018;2023-02-11T00:47:12;76.87;;;57.60;;
7231;SDS011;3657;49.630;11.018;2023-02-11T00:49:40;82.33;;;57.90;;
7231;SDS011;3657;49.630;11.018;2023-02-11T00:52:07;67.40;;;52.77;;
7231;SDS011;3657;49.630;11.018;2023-02-11T00:54:33;80.60;;;59.70;;
7231;SDS011;3657;49.630;11.018;2023-02-11T00:57:00;75.33;;;57.47;;
7231;SDS011;3657;49.630;11.018;2023-02-11T00:59:27;67.93;;;52.20;;
7231;SDS011;3657;49.630;11.018;2023-02-11T01:01:54;75.23;;;55.10;;
7231;SDS011;3657;49.630;11.018;2023-02-11T01:04:20;89.23;;;66.27;;
7231;SDS011;3657;49.630;11.018;2023-02-11T01:06:48;65.90;;;51.80;;
7231;SDS011;3657;49.630;11.018;2023-02-11T01:09:15;67.10;;;52.33;;
7231;SDS011;3657;49.630;11.018;2023-02-11T01:11:42;88.30;;;64.13;;
7231;SDS011;3657;49.630;11.018;2023-02-11T01:14:09;86.73;;;62.20;;
7231;SDS011;3657;49.630;11.018;2023-02-11T01:16:36;85.40;;;65.07;;
7231;SDS011;3657;49.630;11.018;2023-02-11T01:19:02;91.40;;;64.73;;
7231;SDS011;3657;49.630;11.018;2023-02-11T01:21:29;62.97;;;50.53;;
7231;SDS011;3657;49.630;11.018;2023-02-11T01:23:57;64.10;;;51.87;;
7231;SDS011;3657;49.630;11.018;2023-02-11T01:26:23;81.70;;;56.47;;
7231;SDS011;3657;49.630;11.018;2023-02-11T01:28:50;73.47;;;55.47;;
7231;SDS011;3657;49.630;11.018;2023-02-11T01:31:17;62.67;;;49.60;;
7231;SDS011;3657;49.630;11.018;2023-02-11T01:33:43;79.73;;;58.37;;
7231;SDS011;3657;49.630;11.018;2023-02-11T01:36:10;64.93;;;50.87;;
7231;SDS011;3657;49.630;11.018;2023-02-11T01:38:37;59.07;;;48.63;;
7231;SDS011;3657;49.630;11.018;2023-02-11T01:41:07;78.80;;;57.10;;
7231;SDS011;3657;49.630;11.018;2023-02-11T01:43:37;80.47;;;60.03;;
7231;SDS011;3657;49.630;11.018;2023-02-11T01:48:56;74.07;;;55.67;;
7231;SDS011;3657;49.630;11.018;2023-02-11T01:51:28;83.53;;;58.50;;
7231;SDS011;3657;49.630;11.018;2023-02-11T01:53:58;87.60;;;64.87;;
7231;SDS011;3657;49.630;11.018;2023-02-11T01:56:46;60.77;;;49.40;;
7231;SDS011;3657;49.630;11.018;2023-02-11T01:59:36;64.93;;;50.90;;
7231;SDS011;3657;49.630;11.018;2023-02-11T02:02:07;84.70;;;62.33;;
7231;SDS011;3657;49.630;11.018;2023-02-11T02:04:37;80.30;;;59.70;;
7231;SDS011;3657;49.630;11.018;2023-02-11T02:07:10;84.67;;;61.80;;
7231;SDS011;3657;49.630;11.018;2023-02-11T02:09:43;83.07;;;61.47;;
7231;SDS011;3657;49.630;11.018;2023-02-11T02:12:18;60.77;;;49.40;;
7231;SDS011;3657;49.630;11.018;2023-02-11T02:14:45;94.37;;;65.53;;
7231;SDS011;3657;49.630;11.018;2023-02-11T02:17:14;65.07;;;51.23;;
7231;SDS011;3657;49.630;11.018;2023-02-11T02:25:47;62.17;;;48.23;;
7231;SDS011;3657;49.630;11.018;2023-02-11T02:28:58;65.97;;;51.70;;
7231;SDS011;3657;49.630;11.018;2023-02-11T02:31:49;57.77;;;47.20;;
7231;SDS011;3657;49.630;11.018;2023-02-11T02:34:55;60.13;;;48.50;;
7231;SDS011;3657;49.630;11.018;2023-02-11T02:37:28;57.80;;;46.37;;
7231;SDS011;3657;49.630;11.018;2023-02-11T02:40:00;58.67;;;47.43;;
7231;SDS011;3657;49.630;11.018;2023-02-11T02:42:30;85.87;;;62.80;;
7231;SDS011;3657;49.630;11.018;2023-02-11T02:44:58;59.63;;;47.80;;
7231;SDS011;3657;49.630;11.018;2023-02-11T02:47:25;58.23;;;46.40;;
7231;SDS011;3657;49.630;11.018;2023-02-11T02:49:53;92.90;;;66.50;;
7231;SDS011;3657;49.630;11.018;2023-02-11T02:52:26;68.57;;;53.37;;
7231;SDS011;3657;49.630;11.018;2023-02-11T02:58:04;71.63;;;55.00;;
7231;SDS011;3657;49.630;11.018;2023-02-11T03:01:09;91.83;;;66.20;;
7231;SDS011;3657;49.630;11.018;2023-02-11T03:03:45;67.60;;;51.57;;
7231;SDS011;3657;49.630;11.018;2023-02-11T03:06:20;91.00;;;65.77;;
7231;SDS011;3657;49.630;11.018;2023-02-11T03:08:52;93.93;;;66.30;;
7231;SDS011;3657;49.630;11.018;2023-02-11T03:11:23;75.47;;;57.90;;
7231;SDS011;3657;49.630;11.018;2023-02-11T03:13:52;72.10;;;55.50;;
7231;SDS011;3657;49.630;11.018;2023-02-11T03:16:21;70.43;;;53.97;;
7231;SDS011;3657;49.630;11.018;2023-02-11T03:18:54;64.57;;;48.70;;
7231;SDS011;3657;49.630;11.018;2023-02-11T03:21:25;76.13;;;57.33;;
7231;SDS011;3657;49.630;11.018;2023-02-11T03:23:54;67.90;;;51.17;;
7231;SDS011;3657;49.630;11.018;2023-02-11T03:26:27;69.43;;;54.57;;
7231;SDS011;3657;49.630;11.018;2023-02-11T03:29:00;76.40;;;56.63;;
7231;SDS011;3657;49.630;11.018;2023-02-11T03:31:33;71.53;;;53.37;;
7231;SDS011;3657;49.630;11.018;2023-02-11T03:34:06;66.90;;;52.83;;
7231;SDS011;3657;49.630;11.018;2023-02-11T03:36:40;60.60;;;48.43;;
7231;SDS011;3657;49.630;11.018;2023-02-11T03:39:11;66.20;;;47.70;;
7231;SDS011;3657;49.630;11.018;2023-02-11T03:41:42;61.07;;;46.70;;
7231;SDS011;3657;49.630;11.018;2023-02-11T03:44:12;54.67;;;44.00;;
7231;SDS011;3657;49.630;11.018;2023-02-11T03:46:41;57.57;;;44.53;;
7231;SDS011;3657;49.630;11.018;2023-02-11T03:49:13;57.93;;;44.77;;
7231;SDS011;3657;49.630;11.018;2023-02-11T03:51:45;60.43;;;47.43;;
7231;SDS011;3657;49.630;11.018;2023-02-11T03:54:15;63.13;;;49.47;;
7231;SDS011;3657;49.630;11.018;2023-02-11T03:56:47;70.87;;;53.73;;
7231;SDS011;3657;49.630;11.018;2023-02-11T03:59:16;74.67;;;54.70;;
7231;SDS011;3657;49.630;11.018;2023-02-11T04:01:43;72.53;;;54.23;;
7231;SDS011;3657;49.630;11.018;2023-02-11T04:04:09;74.60;;;55.00;;
7231;SDS011;3657;49.630;11.018;2023-02-11T04:06:36;77.83;;;57.00;;
7231;SDS011;3657;49.630;11.018;2023-02-11T04:09:04;61.83;;;47.47;;
7231;SDS011;3657;49.630;11.018;2023-02-11T04:11:31;58.47;;;44.97;;
7231;SDS011;3657;49.630;11.018;2023-02-11T04:13:58;54.97;;;44.13;;
7231;SDS011;3657;49.630;11.018;2023-02-11T04:16:24;78.40;;;58.80;;
7231;SDS011;3657;49.630;11.018;2023-02-11T04:18:51;69.03;;;50.67;;
7231;SDS011;3657;49.630;11.018;2023-02-11T04:21:18;81.50;;;59.87;;
7231;SDS011;3657;49.630;11.018;2023-02-11T04:23:44;83.43;;;59.77;;
7231;SDS011;3657;49.630;11.018;2023-02-11T04:26:13;64.00;;;51.20;;
7231;SDS011;3657;49.630;11.018;2023-02-11T04:28:39;69.57;;;52.50;;
7231;SDS011;3657;49.630;11.018;2023-02-11T04:31:06;69.63;;;54.50;;
7231;SDS011;3657;49.630;11.018;2023-02-11T04:33:34;66.23;;;50.17;;
7231;SDS011;3657;49.630;11.018;2023-02-11T04:36:01;64.37;;;51.17;;
7231;SDS011;3657;49.630;11.018;2023-02-11T04:38:27;76.07;;;54.77;;
7231;SDS011;3657;49.630;11.018;2023-02-11T04:40:54;67.87;;;55.17;;
7231;SDS011;3657;49.630;11.018;2023-02-11T04:43:25;60.07;;;47.13;;
7231;SDS011;3657;49.630;11.018;2023-02-11T04:45:55;73.70;;;54.17;;
7231;SDS011;3657;49.630;11.018;2023-02-11T04:48:22;61.93;;;48.93;;
7231;SDS011;3657;49.630;11.018;2023-02-11T04:50:48;68.37;;;50.70;;
7231;SDS011;3657;49.630;11.018;2023-02-11T04:53:15;73.10;;;51.43;;
7231;SDS011;3657;49.630;11.018;2023-02-11T04:55:42;65.57;;;50.47;;
7231;SDS011;3657;49.630;11.018;2023-02-11T04:58:08;71.17;;;52.63;;
7231;SDS011;3657;49.630;11.018;2023-02-11T05:00:36;70.77;;;54.03;;
7231;SDS011;3657;49.630;11.018;2023-02-11T05:03:03;62.57;;;49.87;;
7231;SDS011;3657;49.630;11.018;2023-02-11T05:05:30;55.27;;;45.00;;
7231;SDS011;3657;49.630;11.018;2023-02-11T05:07:56;52.40;;;43.80;;
7231;SDS011;3657;49.630;11.018;2023-02-11T05:10:23;72.10;;;54.37;;
7231;SDS011;3657;49.630;11.018;2023-02-11T05:12:50;79.63;;;55.33;;
7231;SDS011;3657;49.630;11.018;2023-02-11T05:15:16;68.50;;;52.90;;
7231;SDS011;3657;49.630;11.018;2023-02-11T05:17:45;77.57;;;57.20;;
7231;SDS011;3657;49.630;11.018;2023-02-11T05:20:12;71.70;;;53.87;;
7231;SDS011;3657;49.630;11.018;2023-02-11T05:22:39;74.27;;;55.30;;
7231;SDS011;3657;49.630;11.018;2023-02-11T05:25:06;77.13;;;55.43;;
7231;SDS011;3657;49.630;11.018;2023-02-11T05:27:33;65.03;;;50.90;;
7231;SDS011;3657;49.630;11.018;2023-02-11T05:30:00;72.33;;;54.93;;
7231;SDS011;3657;49.630;11.018;2023-02-11T05:32:27;75.90;;;57.07;;
7231;SDS011;3657;49.630;11.018;2023-02-11T05:34:55;53.27;;;44.70;;
7231;SDS011;3657;49.630;11.018;2023-02-11T05:37:22;70.17;;;52.17;;
7231;SDS011;3657;49.630;11.018;2023-02-11T05:39:49;66.27;;;48.53;;
7231;SDS011;3657;49.630;11.018;2023-02-11T05:42:15;58.97;;;45.53;;
7231;SDS011;3657;49.630;11.018;2023-02-11T05:44:42;58.00;;;44.90;;
7231;SDS011;3657;49.630;11.018;2023-02-11T05:47:08;58.63;;;45.50;;
7231;SDS011;3657;49.630;11.018;2023-02-11T05:49:35;59.50;;;45.17;;
7231;SDS011;3657;49.630;11.018;2023-02-11T05:52:03;54.97;;;41.77;;
7231;SDS011;3657;49.630;11.018;2023-02-11T05:54:30;52.90;;;40.20;;
7231;SDS011;3657;49.630;11.018;2023-02-11T05:56:57;50.77;;;42.03;;
7231;SDS011;3657;49.630;11.018;2023-02-11T05:59:23;61.43;;;47.47;;
7231;SDS011;3657;49.630;11.018;2023-02-11T06:01:50;54.20;;;44.03;;
7231;SDS011;3657;49.630;11.018;2023-02-11T06:04:17;59.83;;;47.10;;
7231;SDS011;3657;49.630;11.018;2023-02-11T06:06:44;60.07;;;47.23;;
7231;SDS011;3657;49.630;11.018;2023-02-11T06:09:12;47.43;;;40.40;;
7231;SDS011;3657;49.630;11.018;2023-02-11T06:11:38;61.97;;;48.57;;
7231;SDS011;3657;49.630;11.018;2023-02-11T06:14:05;62.70;;;48.60;;
7231;SDS011;3657;49.630;11.018;2023-02-11T06:16:32;49.33;;;39.47;;
7231;SDS011;3657;49.630;11.018;2023-02-11T06:18:58;62.33;;;47.80;;
7231;SDS011;3657;49.630;11.018;2023-02-11T06:21:25;53.93;;;42.07;;
7231;SDS011;3657;49.630;11.018;2023-02-11T06:23:52;58.23;;;43.80;;
7231;SDS011;3657;49.630;11.018;2023-02-11T06:26:20;50.57;;;40.47;;
7231;SDS011;3657;49.630;11.018;2023-02-11T06:28:48;55.07;;;42.47;;
7231;SDS011;3657;49.630;11.018;2023-02-11T06:31:15;54.40;;;42.97;;
7231;SDS011;3657;49.630;11.018;2023-02-11T06:33:41;55.30;;;45.70;;
7231;SDS011;3657;49.630;11.018;2023-02-11T06:36:12;49.33;;;41.33;;
7231;SDS011;3657;49.630;11.018;2023-02-11T06:38:40;58.20;;;45.27;;
7231;SDS011;3657;49.630;11.018;2023-02-11T06:41:08;50.87;;;38.83;;
7231;SDS011;3657;49.630;11.018;2023-02-11T06:43:36;54.90;;;43.93;;
7231;SDS011;3657;49.630;11.018;2023-02-11T06:46:03;55.80;;;45.13;;
7231;SDS011;3657;49.630;11.018;2023-02-11T06:48:30;67.10;;;52.63;;
7231;SDS011;3657;49.630;11.018;2023-02-11T06:50:59;64.33;;;50.00;;
7231;SDS011;3657;49.630;11.018;2023-02-11T06:53:27;69.13;;;52.00;;
7231;SDS011;3657;49.630;11.018;2023-02-11T06:55:54;54.83;;;43.40;;
7231;SDS011;3657;49.630;11.018;2023-02-11T06:58:21;71.43;;;52.90;;
7231;SDS011;3657;49.630;11.018;2023-02-11T07:00:49;72.70;;;53.47;;
7231;SDS011;3657;49.630;11.018;2023-02-11T07:03:16;67.67;;;50.60;;
7231;SDS011;3657;49.630;11.018;2023-02-11T07:05:43;61.00;;;49.13;;
7231;SDS011;3657;49.630;11.018;2023-02-11T07:08:09;46.73;;;39.50;;
7231;SDS011;3657;49.630;11.018;2023-02-11T07:10:36;88.53;;;64.03;;
7231;SDS011;3657;49.630;11.018;2023-02-11T07:13:03;72.10;;;54.33;;
7231;SDS011;3657;49.630;11.018;2023-02-11T07:15:29;56.50;;;45.80;;
7231;SDS011;3657;49.630;11.018;2023-02-11T07:17:57;69.30;;;52.83;;
7231;SDS011;3657;49.630;11.018;2023-02-11T07:20:24;75.27;;;57.10;;
7231;SDS011;3657;49.630;11.018;2023-02-11T07:22:51;73.00;;;57.13;;
7231;SDS011;3657;49.630;11.018;2023-02-11T07:25:17;76.73;;;56.70;;
7231;SDS011;3657;49.630;11.018;2023-02-11T07:27:44;58.60;;;45.87;;
7231;SDS011;3657;49.630;11.018;2023-02-11T07:30:11;57.30;;;48.70;;
7231;SDS011;3657;49.630;11.018;2023-02-11T07:32:39;74.47;;;55.80;;
7231;SDS011;3657;49.630;11.018;2023-02-11T07:35:07;75.00;;;56.83;;
7231;SDS011;3657;49.630;11.018;2023-02-11T07:37:34;72.90;;;55.67;;
7231;SDS011;3657;49.630;11.018;2023-02-11T07:40:01;65.60;;;52.33;;
7231;SDS011;3657;49.630;11.018;2023-02-11T07:42:28;67.70;;;49.03;;
7231;SDS011;3657;49.630;11.018;2023-02-11T07:44:55;70.90;;;55.90;;
7231;SDS011;3657;49.630;11.018;2023-02-11T07:47:22;66.57;;;50.37;;
7231;SDS011;3657;49.630;11.018;2023-02-11T07:49:48;73.20;;;56.37;;
7231;SDS011;3657;49.630;11.018;2023-02-11T07:52:16;84.93;;;65.07;;
7231;SDS011;3657;49.630;11.018;2023-02-11T07:54:43;88.67;;;66.33;;
7231;SDS011;3657;49.630;11.018;2023-02-11T07:57:10;71.33;;;55.87;;
7231;SDS011;3657;49.630;11.018;2023-02-11T07:59:36;66.97;;;52.07;;
7231;SDS011;3657;49.630;11.018;2023-02-11T08:02:03;77.73;;;60.67;;
7231;SDS011;3657;49.630;11.018;2023-02-11T08:04:30;67.47;;;52.30;;
7231;SDS011;3657;49.630;11.018;2023-02-11T08:06:57;53.47;;;44.67;;
7231;SDS011;3657;49.630;11.018;2023-02-11T08:09:25;70.17;;;52.30;;
7231;SDS011;3657;49.630;11.018;2023-02-11T08:11:51;80.03;;;55.70;;
7231;SDS011;3657;49.630;11.018;2023-02-11T08:14:18;71.30;;;55.10;;
7231;SDS011;3657;49.630;11.018;2023-02-11T08:16:45;78.90;;;57.23;;
7231;SDS011;3657;49.630;11.018;2023-02-11T08:19:12;69.50;;;54.33;;
7231;SDS011;3657;49.630;11.018;2023-02-11T08:21:40;57.53;;;48.50;;
7231;SDS011;3657;49.630;11.018;2023-02-11T08:24:07;80.90;;;59.50;;
7231;SDS011;3657;49.630;11.018;2023-02-11T08:26:36;77.37;;;57.63;;
7231;SDS011;3657;49.630;11.018;2023-02-11T08:29:05;74.07;;;54.83;;
7231;SDS011;3657;49.630;11.018;2023-02-11T08:31:34;64.13;;;51.10;;
7231;SDS011;3657;49.630;11.018;2023-02-11T08:34:02;81.43;;;61.67;;
7231;SDS011;3657;49.630;11.018;2023-02-11T08:36:29;89.60;;;68.83;;
7231;SDS011;3657;49.630;11.018;2023-02-11T08:38:58;80.40;;;60.80;;
7231;SDS011;3657;49.630;11.018;2023-02-11T08:41:27;70.90;;;57.00;;
7231;SDS011;3657;49.630;11.018;2023-02-11T08:43:55;71.50;;;51.27;;
7231;SDS011;3657;49.630;11.018;2023-02-11T08:46:22;65.50;;;52.17;;
7231;SDS011;3657;49.630;11.018;2023-02-11T08:48:49;52.50;;;41.93;;
7231;SDS011;3657;49.630;11.018;2023-02-11T08:51:16;56.03;;;45.50;;
7231;SDS011;3657;49.630;11.018;2023-02-11T08:53:45;51.53;;;43.50;;
7231;SDS011;3657;49.630;11.018;2023-02-11T08:56:12;46.87;;;40.73;;
7231;SDS011;3657;49.630;11.018;2023-02-11T08:58:39;48.40;;;40.53;;
7231;SDS011;3657;49.630;11.018;2023-02-11T09:01:11;51.07;;;41.57;;
7231;SDS011;3657;49.630;11.018;2023-02-11T09:03:41;44.10;;;36.03;;
7231;SDS011;3657;49.630;11.018;2023-02-11T09:06:08;42.10;;;36.80;;
7231;SDS011;3657;49.630;11.018;2023-02-11T09:08:37;46.77;;;36.20;;
7231;SDS011;3657;49.630;11.018;2023-02-11T09:11:04;39.87;;;33.63;;
7231;SDS011;3657;49.630;11.018;2023-02-11T09:13:32;41.63;;;34.77;;
7231;SDS011;3657;49.630;11.018;2023-02-11T09:15:59;41.37;;;36.03;;
7231;SDS011;3657;49.630;11.018;2023-02-11T09:18:29;42.93;;;36.47;;
7231;SDS011;3657;49.630;11.018;2023-02-11T09:21:00;46.43;;;38.63;;
7231;SDS011;3657;49.630;11.018;2023-02-11T09:23:27;49.50;;;38.83;;
7231;SDS011;3657;49.630;11.018;2023-02-11T09:25:54;54.53;;;45.10;;
7231;SDS011;3657;49.630;11.018;2023-02-11T09:28:20;44.13;;;37.57;;
7231;SDS011;3657;49.630;11.018;2023-02-11T09:30:47;46.40;;;38.90;;
7231;SDS011;3657;49.630;11.018;2023-02-11T09:33:14;41.93;;;34.90;;
7231;SDS011;3657;49.630;11.018;2023-02-11T09:35:42;42.87;;;36.80;;
7231;SDS011;3657;49.630;11.018;2023-02-11T09:38:08;45.70;;;40.07;;
7231;SDS011;3657;49.630;11.018;2023-02-11T09:40:35;42.33;;;36.53;;
7231;SDS011;3657;49.630;11.018;2023-02-11T09:43:03;43.17;;;37.47;;
7231;SDS011;3657;49.630;11.018;2023-02-11T09:45:32;43.30;;;37.07;;
7231;SDS011;3657;49.630;11.018;2023-02-11T09:48:00;44.13;;;36.60;;
7231;SDS011;3657;49.630;11.018;2023-02-11T09:50:31;39.77;;;34.87;;
7231;SDS011;3657;49.630;11.018;2023-02-11T09:53:02;40.27;;;35.87;;
7231;SDS011;3657;49.630;11.018;2023-02-11T09:55:32;52.57;;;38.60;;
7231;SDS011;3657;49.630;11.018;2023-02-11T09:58:04;41.90;;;35.63;;
7231;SDS011;3657;49.630;11.018;2023-02-11T10:00:38;41.80;;;36.00;;
7231;SDS011;3657;49.630;11.018;2023-02-11T10:06:23;37.70;;;32.70;;
7231;SDS011;3657;49.630;11.018;2023-02-11T10:12:02;46.70;;;37.50;;
7231;SDS011;3657;49.630;11.018;2023-02-11T10:14:45;44.53;;;37.00;;
7231;SDS011;3657;49.630;11.018;2023-02-11T10:17:28;43.63;;;38.43;;
7231;SDS011;3657;49.630;11.018;2023-02-11T10:20:03;43.63;;;36.80;;
7231;SDS011;3657;49.630;11.018;2023-02-11T10:22:46;42.73;;;35.47;;
7231;SDS011;3657;49.630;11.018;2023-02-11T10:25:19;39.27;;;33.93;;
7231;SDS011;3657;49.630;11.018;2023-02-11T10:27:48;35.77;;;31.13;;
7231;SDS011;3657;49.630;11.018;2023-02-11T10:30:18;43.57;;;36.63;;
7231;SDS011;3657;49.630;11.018;2023-02-11T10:32:50;38.63;;;31.93;;
7231;SDS011;3657;49.630;11.018;2023-02-11T10:35:23;40.93;;;34.57;;
7231;SDS011;3657;49.630;11.018;2023-02-11T10:37:51;38.50;;;32.23;;
7231;SDS011;3657;49.630;11.018;2023-02-11T10:40:20;33.23;;;29.63;;
7231;SDS011;3657;49.630;11.018;2023-02-11T10:42:49;32.47;;;28.97;;
7231;SDS011;3657;49.630;11.018;2023-02-11T10:45:20;37.03;;;30.17;;
7231;SDS011;3657;49.630;11.018;2023-02-11T10:47:50;37.07;;;31.10;;
7231;SDS011;3657;49.630;11.018;2023-02-11T10:50:18;40.33;;;32.40;;
7231;SDS011;3657;49.630;11.018;2023-02-11T10:52:48;42.13;;;34.73;;
7231;SDS011;3657;49.630;11.018;2023-02-11T10:55:15;37.30;;;31.37;;
7231;SDS011;3657;49.630;11.018;2023-02-11T10:57:50;35.30;;;30.63;;
7231;SDS011;3657;49.630;11.018;2023-02-11T11:00:32;35.17;;;30.90;;
7231;SDS011;3657;49.630;11.018;2023-02-11T11:03:02;36.83;;;30.47;;
7231;SDS011;3657;49.630;11.018;2023-02-11T11:05:31;35.17;;;31.03;;
7231;SDS011;3657;49.630;11.018;2023-02-11T11:08:01;33.87;;;29.53;;
7231;SDS011;3657;49.630;11.018;2023-02-11T11:10:33;37.03;;;31.57;;
7231;SDS011;3657;49.630;11.018;2023-02-11T11:13:14;35.83;;;31.93;;
7231;SDS011;3657;49.630;11.018;2023-02-11T11:16:05;37.60;;;29.47;;
7231;SDS011;3657;49.630;11.018;2023-02-11T11:18:43;39.00;;;33.73;;
7231;SDS011;3657;49.630;11.018;2023-02-11T11:21:12;39.40;;;30.47;;
7231;SDS011;3657;49.630;11.018;2023-02-11T11:23:40;38.07;;;33.30;;
7231;SDS011;3657;49.630;11.018;2023-02-11T11:26:14;42.50;;;34.07;;
7231;SDS011;3657;49.630;11.018;2023-02-11T11:28:49;38.80;;;33.33;;
7231;SDS011;3657;49.630;11.018;2023-02-11T11:31:19;36.63;;;31.40;;
7231;SDS011;3657;49.630;11.018;2023-02-11T11:33:48;38.53;;;32.57;;
7231;SDS011;3657;49.630;11.018;2023-02-11T11:36:19;36.63;;;32.00;;
7231;SDS011;3657;49.630;11.018;2023-02-11T11:38:48;39.13;;;33.67;;
7231;SDS011;3657;49.630;11.018;2023-02-11T11:41:27;41.40;;;34.67;;
7231;SDS011;3657;49.630;11.018;2023-02-11T11:43:57;44.13;;;34.90;;
7231;SDS011;3657;49.630;11.018;2023-02-11T11:46:28;52.83;;;43.30;;
7231;SDS011;3657;49.630;11.018;2023-02-11T11:48:59;45.83;;;34.70;;
7231;SDS011;3657;49.630;11.018;2023-02-11T11:51:36;45.73;;;38.27;;
7231;SDS011;3657;49.630;11.018;2023-02-11T11:54:07;49.80;;;39.83;;
7231;SDS011;3657;49.630;11.018;2023-02-11T11:56:38;47.23;;;37.73;;
7231;SDS011;3657;49.630;11.018;2023-02-11T11:59:12;47.87;;;38.40;;
7231;SDS011;3657;49.630;11.018;2023-02-11T12:01:43;53.93;;;40.17;;
7231;SDS011;3657;49.630;11.018;2023-02-11T12:04:28;51.87;;;38.53;;
7231;SDS011;3657;49.630;11.018;2023-02-11T12:07:10;46.93;;;37.47;;
7231;SDS011;3657;49.630;11.018;2023-02-11T12:09:44;43.30;;;35.93;;
7231;SDS011;3657;49.630;11.018;2023-02-11T12:12:25;35.53;;;31.73;;
7231;SDS011;3657;49.630;11.018;2023-02-11T12:15:10;37.77;;;32.73;;
7231;SDS011;3657;49.630;11.018;2023-02-11T12:17:51;39.77;;;35.47;;
7231;SDS011;3657;49.630;11.018;2023-02-11T12:20:31;41.23;;;34.60;;
7231;SDS011;3657;49.630;11.018;2023-02-11T12:23:11;38.97;;;33.70;;
7231;SDS011;3657;49.630;11.018;2023-02-11T12:25:49;38.20;;;33.40;;
7231;SDS011;3657;49.630;11.018;2023-02-11T12:28:25;38.40;;;33.67;;
7231;SDS011;3657;49.630;11.018;2023-02-11T12:31:05;41.83;;;33.97;;
7231;SDS011;3657;49.630;11.018;2023-02-11T12:33:49;40.50;;;33.27;;
7231;SDS011;3657;49.630;11.018;2023-02-11T12:36:44;39.10;;;33.03;;
7231;SDS011;3657;49.630;11.018;2023-02-11T12:39:25;40.10;;;34.30;;
7231;SDS011;3657;49.630;11.018;2023-02-11T12:42:03;37.67;;;33.67;;
7231;SDS011;3657;49.630;11.018;2023-02-11T12:45:04;52.23;;;40.23;;
7231;SDS011;3657;49.630;11.018;2023-02-11T12:47:48;72.03;;;55.70;;
7231;SDS011;3657;49.630;11.018;2023-02-11T12:50:27;53.73;;;43.90;;
7231;SDS011;3657;49.630;11.018;2023-02-11T12:53:03;63.73;;;50.30;;
7231;SDS011;3657;49.630;11.018;2023-02-11T12:55:43;61.90;;;51.30;;
7231;SDS011;3657;49.630;11.018;2023-02-11T12:58:13;51.80;;;42.03;;
7231;SDS011;3657;49.630;11.018;2023-02-11T13:00:44;43.43;;;36.57;;
7231;SDS011;3657;49.630;11.018;2023-02-11T13:03:17;40.67;;;36.33;;
7231;SDS011;3657;49.630;11.018;2023-02-11T13:05:48;41.93;;;36.43;;
7231;SDS011;3657;49.630;11.018;2023-02-11T13:08:18;40.90;;;34.37;;
7231;SDS011;3657;49.630;11.018;2023-02-11T13:10:51;41.93;;;34.63;;
7231;SDS011;3657;49.630;11.018;2023-02-11T13:13:24;41.27;;;34.33;;
7231;SDS011;3657;49.630;11.018;2023-02-11T13:15:55;38.10;;;32.60;;
7231;SDS011;3657;49.630;11.018;2023-02-11T13:18:35;40.63;;;34.57;;
7231;SDS011;3657;49.630;11.018;2023-02-11T13:21:18;43.30;;;36.47;;
7231;SDS011;3657;49.630;11.018;2023-02-11T13:24:04;39.50;;;33.60;;
7231;SDS011;3657;49.630;11.018;2023-02-11T13:26:40;42.17;;;35.50;;
7231;SDS011;3657;49.630;11.018;2023-02-11T13:29:14;42.73;;;33.57;;
7231;SDS011;3657;49.630;11.018;2023-02-11T13:31:52;38.93;;;34.13;;
7231;SDS011;3657;49.630;11.018;2023-02-11T13:34:25;39.77;;;34.10;;
7231;SDS011;3657;49.630;11.018;2023-02-11T13:37:17;44.53;;;34.73;;
7231;SDS011;3657;49.630;11.018;2023-02-11T13:39:54;38.70;;;33.17;;
7231;SDS011;3657;49.630;11.018;2023-02-11T13:42:22;42.97;;;35.33;;
7231;SDS011;3657;49.630;11.018;2023-02-11T13:44:49;41.00;;;35.40;;
7231;SDS011;3657;49.630;11.018;2023-02-11T13:47:21;38.73;;;33.30;;
7231;SDS011;3657;49.630;11.018;2023-02-11T13:49:55;52.30;;;45.00;;
7231;SDS011;3657;49.630;11.018;2023-02-11T13:52:24;51.97;;;41.67;;
7231;SDS011;3657;49.630;11.018;2023-02-11T13:54:55;43.90;;;36.63;;
7231;SDS011;3657;49.630;11.018;2023-02-11T13:57:31;41.77;;;34.80;;
7231;SDS011;3657;49.630;11.018;2023-02-11T14:00:00;39.73;;;34.87;;
7231;SDS011;3657;49.630;11.018;2023-02-11T14:02:30;38.23;;;33.43;;
7231;SDS011;3657;49.630;11.018;2023-02-11T14:05:22;36.70;;;32.63;;
7231;SDS011;3657;49.630;11.018;2023-02-11T14:08:21;39.80;;;32.97;;
7231;SDS011;3657;49.630;11.018;2023-02-11T14:11:08;41.30;;;33.67;;
7231;SDS011;3657;49.630;11.018;2023-02-11T14:14:14;36.13;;;31.90;;
7231;SDS011;3657;49.630;11.018;2023-02-11T14:19:43;34.90;;;31.17;;
7231;SDS011;3657;49.630;11.018;2023-02-11T14:22:12;38.13;;;33.37;;
7231;SDS011;3657;49.630;11.018;2023-02-11T14:24:45;39.50;;;33.50;;
7231;SDS011;3657;49.630;11.018;2023-02-11T14:27:22;37.33;;;32.13;;
7231;SDS011;3657;49.630;11.018;2023-02-11T14:30:01;34.00;;;30.30;;
7231;SDS011;3657;49.630;11.018;2023-02-11T14:32:51;41.67;;;33.97;;
7231;SDS011;3657;49.630;11.018;2023-02-11T14:35:30;38.70;;;32.53;;
7231;SDS011;3657;49.630;11.018;2023-02-11T14:38:03;39.87;;;35.50;;
7231;SDS011;3657;49.630;11.018;2023-02-11T14:40:38;38.77;;;34.43;;
7231;SDS011;3657;49.630;11.018;2023-02-11T14:43:15;46.60;;;37.07;;
7231;SDS011;3657;49.630;11.018;2023-02-11T14:45:47;38.40;;;34.33;;
7231;SDS011;3657;49.630;11.018;2023-02-11T14:48:17;41.20;;;36.10;;
7231;SDS011;3657;49.630;11.018;2023-02-11T14:50:45;42.20;;;37.10;;
7231;SDS011;3657;49.630;11.018;2023-02-11T14:53:17;41.10;;;34.40;;
7231;SDS011;3657;49.630;11.018;2023-02-11T14:55:47;40.00;;;34.63;;
7231;SDS011;3657;49.630;11.018;2023-02-11T14:58:17;44.77;;;36.93;;
7231;SDS011;3657;49.630;11.018;2023-02-11T15:00:49;42.93;;;35.70;;
7231;SDS011;3657;49.630;11.018;2023-02-11T15:03:23;41.53;;;34.80;;
7231;SDS011;3657;49.630;11.018;2023-02-11T15:06:00;37.27;;;32.83;;
7231;SDS011;3657;49.630;11.018;2023-02-11T15:08:31;38.20;;;33.60;;
7231;SDS011;3657;49.630;11.018;2023-02-11T15:11:02;37.77;;;33.00;;
7231;SDS011;3657;49.630;11.018;2023-02-11T15:13:35;37.10;;;32.27;;
7231;SDS011;3657;49.630;11.018;2023-02-11T15:16:04;38.57;;;33.70;;